sensor_id;sensor_type;location;lat;lon;timestamp;pressure;altitude;pressure_sealevel;temperature;humidity
5966;BME280;3009;43.224;27.976;2022-11-20T00:01:23;100124.38;;;15.82;100.00
5966;BME280;3009;43.224;27.976;2022-11-20T00:03:53;100130.97;;;15.85;100.00
5966;BME280;3009;43.224;27.976;2022-11-20T00:06:22;100130.00;;;15.77;100.00
5966;BME280;3009;43.224;27.976;2022-11-20T00:08:51;100121.34;;;15.71;100.00
5966;BME280;3009;43.224;27.976;2022-11-20T00:11:20;100113.09;;;15.80;100.00
5966;BME280;3009;43.224;27.976;2022-11-20T00:13:50;100123.81;;;15.92;100.00
5966;BME280;3009;43.224;27.976;2022-11-20T00:16:21;100114.50;;;15.90;100.00
5966;BME280;3009;43.224;27.976;2022-11-20T00:18:51;100115.63;;;15.89;100.00
5966;BME280;3009;43.224;27.976;2022-11-20T00:21:21;100115.81;;;15.80;100.00
5966;BME280;3009;43.224;27.976;2022-11-20T00:23:51;100107.41;;;15.69;100.00
5966;BME280;3009;43.224;27.976;2022-11-20T00:26:22;100114.91;;;15.60;100.00
5966;BME280;3009;43.224;27.976;2022-11-20T00:28:51;100106.09;;;15.47;100.00
5966;BME280;3009;43.224;27.976;2022-11-20T00:31:21;100112.88;;;15.41;100.00
5966;BME280;3009;43.224;27.976;2022-11-20T00:33:50;100108.34;;;15.29;100.00
5966;BME280;3009;43.224;27.976;2022-11-20T00:36:20;100104.22;;;15.19;100.00
5966;BME280;3009;43.224;27.976;2022-11-20T00:38:51;100099.53;;;15.16;100.00
5966;BME280;3009;43.224;27.976;2022-11-20T00:41:20;100108.41;;;15.17;100.00
5966;BME280;3009;43.224;27.976;2022-11-20T00:43:50;100112.94;;;15.13;100.00
5966;BME280;3009;43.224;27.976;2022-11-20T00:46:21;100111.59;;;15.06;100.00
5966;BME280;3009;43.224;27.976;2022-11-20T00:48:50;100123.00;;;15.00;100.00
5966;BME280;3009;43.224;27.976;2022-11-20T00:51:20;100117.75;;;14.91;100.00
5966;BME280;3009;43.224;27.976;2022-11-20T00:53:49;100118.34;;;14.84;100.00
5966;BME280;3009;43.224;27.976;2022-11-20T00:56:19;100118.38;;;14.72;100.00
5966;BME280;3009;43.224;27.976;2022-11-20T00:58:48;100119.28;;;14.64;100.00
5966;BME280;3009;43.224;27.976;2022-11-20T01:01:18;100123.44;;;14.61;100.00
5966;BME280;3009;43.224;27.976;2022-11-20T01:03:50;100114.13;;;14.59;100.00
5966;BME280;3009;43.224;27.976;2022-11-20T01:06:20;100114.25;;;14.50;100.00
5966;BME280;3009;43.224;27.976;2022-11-20T01:08:49;100111.31;;;14.43;100.00
5966;BME280;3009;43.224;27.976;2022-11-20T01:11:19;100107.13;;;14.58;100.00
5966;BME280;3009;43.224;27.976;2022-11-20T01:13:49;100119.59;;;14.75;100.00
5966;BME280;3009;43.224;27.976;2022-11-20T01:16:19;100108.72;;;14.99;100.00
5966;BME280;3009;43.224;27.976;2022-11-20T01:18:51;100118.91;;;15.06;100.00
5966;BME280;3009;43.224;27.976;2022-11-20T01:21:21;100111.84;;;15.01;100.00
5966;BME280;3009;43.224;27.976;2022-11-20T01:23:51;100112.06;;;15.09;100.00
5966;BME280;3009;43.224;27.976;2022-11-20T01:26:22;100108.88;;;15.06;100.00
5966;BME280;3009;43.224;27.976;2022-11-20T01:28:51;100100.75;;;15.19;100.00
5966;BME280;3009;43.224;27.976;2022-11-20T01:31:22;100119.94;;;15.46;100.00
5966;BME280;3009;43.224;27.976;2022-11-20T01:33:54;100113.22;;;15.84;100.00
5966;BME280;3009;43.224;27.976;2022-11-20T01:36:25;100101.50;;;15.95;100.00
5966;BME280;3009;43.224;27.976;2022-11-20T01:38:55;100109.53;;;15.92;100.00
5966;BME280;3009;43.224;27.976;2022-11-20T01:41:25;100106.75;;;15.88;100.00
5966;BME280;3009;43.224;27.976;2022-11-20T01:44:12;100107.47;;;15.85;100.00
5966;BME280;3009;43.224;27.976;2022-11-20T01:46:50;100102.41;;;15.84;100.00
5966;BME280;3009;43.224;27.976;2022-11-20T01:49:25;100102.66;;;15.79;100.00
5966;BME280;3009;43.224;27.976;2022-11-20T01:51:57;100100.53;;;15.72;100.00
5966;BME280;3009;43.224;27.976;2022-11-20T01:54:30;100092.31;;;15.68;100.00
5966;BME280;3009;43.224;27.976;2022-11-20T01:57:01;100090.94;;;15.58;100.00
5966;BME280;3009;43.224;27.976;2022-11-20T01:59:31;100091.53;;;15.52;100.00
5966;BME280;3009;43.224;27.976;2022-11-20T02:01:59;100094.50;;;15.47;100.00
5966;BME280;3009;43.224;27.976;2022-11-20T02:04:29;100092.22;;;15.49;100.00
5966;BME280;3009;43.224;27.976;2022-11-20T02:06:59;100100.88;;;15.70;100.00
5966;BME280;3009;43.224;27.976;2022-11-20T02:09:28;100096.28;;;15.87;100.00
5966;BME280;3009;43.224;27.976;2022-11-20T02:11:57;100086.53;;;16.18;100.00
5966;BME280;3009;43.224;27.976;2022-11-20T02:14:26;100094.00;;;16.40;100.00
5966;BME280;3009;43.224;27.976;2022-11-20T02:16:54;100087.81;;;16.59;100.00
5966;BME280;3009;43.224;27.976;2022-11-20T02:19:26;100080.31;;;16.72;100.00
5966;BME280;3009;43.224;27.976;2022-11-20T02:22:00;100077.63;;;16.72;100.00
5966;BME280;3009;43.224;27.976;2022-11-20T02:24:31;100080.53;;;16.83;100.00
5966;BME280;3009;43.224;27.976;2022-11-20T02:27:01;100077.81;;;16.83;100.00
5966;BME280;3009;43.224;27.976;2022-11-20T02:29:33;100088.97;;;16.78;100.00
5966;BME280;3009;43.224;27.976;2022-11-20T02:32:04;100087.81;;;16.79;100.00
5966;BME280;3009;43.224;27.976;2022-11-20T02:34:32;100083.34;;;16.67;100.00
5966;BME280;3009;43.224;27.976;2022-11-20T02:37:01;100077.13;;;16.66;100.00
5966;BME280;3009;43.224;27.976;2022-11-20T02:39:31;100083.25;;;16.63;100.00
5966;BME280;3009;43.224;27.976;2022-11-20T02:42:00;100079.41;;;16.64;100.00
5966;BME280;3009;43.224;27.976;2022-11-20T02:44:28;100087.16;;;16.66;100.00
5966;BME280;3009;43.224;27.976;2022-11-20T02:46:57;100076.41;;;16.70;100.00
5966;BME280;3009;43.224;27.976;2022-11-20T02:49:25;100074.19;;;16.75;100.00
5966;BME280;3009;43.224;27.976;2022-11-20T02:51:53;100067.50;;;16.69;100.00
5966;BME280;3009;43.224;27.976;2022-11-20T02:54:21;100060.09;;;16.66;100.00
5966;BME280;3009;43.224;27.976;2022-11-20T02:56:51;100045.50;;;16.71;100.00
5966;BME280;3009;43.224;27.976;2022-11-20T02:59:19;100046.25;;;16.71;100.00
5966;BME280;3009;43.224;27.976;2022-11-20T03:01:48;100039.00;;;16.75;100.00
5966;BME280;3009;43.224;27.976;2022-11-20T03:04:16;100037.94;;;16.80;100.00
5966;BME280;3009;43.224;27.976;2022-11-20T03:06:44;100044.38;;;16.91;100.00
5966;BME280;3009;43.224;27.976;2022-11-20T03:09:13;100049.84;;;16.95;100.00
5966;BME280;3009;43.224;27.976;2022-11-20T03:11:41;100042.16;;;16.97;100.00
5966;BME280;3009;43.224;27.976;2022-11-20T03:14:10;100044.00;;;16.93;100.00
5966;BME280;3009;43.224;27.976;2022-11-20T03:16:38;100044.38;;;16.91;100.00
5966;BME280;3009;43.224;27.976;2022-11-20T03:19:06;100042.38;;;16.88;100.00
5966;BME280;3009;43.224;27.976;2022-11-20T03:21:35;100033.91;;;16.90;100.00
5966;BME280;3009;43.224;27.976;2022-11-20T03:24:03;100018.06;;;16.92;99.96
5966;BME280;3009;43.224;27.976;2022-11-20T03:26:32;100030.03;;;16.91;100.00
5966;BME280;3009;43.224;27.976;2022-11-20T03:29:03;100023.56;;;16.95;99.32
5966;BME280;3009;43.224;27.976;2022-11-20T03:31:34;100020.41;;;16.93;99.28
5966;BME280;3009;43.224;27.976;2022-11-20T03:34:03;100025.47;;;16.95;99.01
5966;BME280;3009;43.224;27.976;2022-11-20T03:36:32;100024.34;;;16.96;98.97
5966;BME280;3009;43.224;27.976;2022-11-20T03:39:01;100029.63;;;16.89;99.50
5966;BME280;3009;43.224;27.976;2022-11-20T03:41:30;100032.59;;;16.83;99.96
5966;BME280;3009;43.224;27.976;2022-11-20T03:44:01;100034.16;;;16.84;100.00
5966;BME280;3009;43.224;27.976;2022-11-20T03:46:29;100030.38;;;16.70;100.00
5966;BME280;3009;43.224;27.976;2022-11-20T03:48:59;100028.75;;;16.65;100.00
5966;BME280;3009;43.224;27.976;2022-11-20T03:51:29;100034.41;;;16.56;100.00
5966;BME280;3009;43.224;27.976;2022-11-20T03:53:58;100033.53;;;16.52;100.00
5966;BME280;3009;43.224;27.976;2022-11-20T03:56:28;100025.78;;;16.51;100.00
5966;BME280;3009;43.224;27.976;2022-11-20T03:58:57;100016.38;;;16.44;100.00
5966;BME280;3009;43.224;27.976;2022-11-20T04:01:27;100017.47;;;16.40;100.00
5966;BME280;3009;43.224;27.976;2022-11-20T04:03:56;100015.47;;;16.37;100.00
5966;BME280;3009;43.224;27.976;2022-11-20T04:06:28;100007.69;;;16.35;100.00
5966;BME280;3009;43.224;27.976;2022-11-20T04:08:57;100011.03;;;16.28;100.00
5966;BME280;3009;43.224;27.976;2022-11-20T04:11:27;100003.22;;;16.23;100.00
5966;BME280;3009;43.224;27.976;2022-11-20T04:13:56;100010.53;;;16.23;100.00
5966;BME280;3009;43.224;27.976;2022-11-20T04:16:26;100013.22;;;16.23;100.00
5966;BME280;3009;43.224;27.976;2022-11-20T04:18:57;100010.47;;;16.19;100.00
5966;BME280;3009;43.224;27.976;2022-11-20T04:21:27;100009.09;;;16.09;100.00
5966;BME280;3009;43.224;27.976;2022-11-20T04:23:56;100010.94;;;16.05;100.00
5966;BME280;3009;43.224;27.976;2022-11-20T04:26:27;100004.88;;;15.92;100.00
5966;BME280;3009;43.224;27.976;2022-11-20T04:28:56;99997.81;;;15.88;100.00
5966;BME280;3009;43.224;27.976;2022-11-20T04:31:27;99999.75;;;15.87;100.00
5966;BME280;3009;43.224;27.976;2022-11-20T04:33:58;100006.78;;;15.76;100.00
5966;BME280;3009;43.224;27.976;2022-11-20T04:36:29;100002.38;;;15.68;100.00
5966;BME280;3009;43.224;27.976;2022-11-20T04:38:58;99996.09;;;15.64;100.00
5966;BME280;3009;43.224;27.976;2022-11-20T04:41:28;100004.19;;;15.64;100.00
5966;BME280;3009;43.224;27.976;2022-11-20T04:43:58;100017.53;;;15.72;100.00
5966;BME280;3009;43.224;27.976;2022-11-20T04:46:30;100019.34;;;15.68;100.00
5966;BME280;3009;43.224;27.976;2022-11-20T04:48:59;100007.06;;;15.71;100.00
5966;BME280;3009;43.224;27.976;2022-11-20T04:51:28;99998.19;;;15.70;100.00
5966;BME280;3009;43.224;27.976;2022-11-20T04:53:57;99993.13;;;15.69;100.00
5966;BME280;3009;43.224;27.976;2022-11-20T04:56:25;100009.00;;;15.70;100.00
5966;BME280;3009;43.224;27.976;2022-11-20T04:58:53;100000.94;;;15.74;100.00
5966;BME280;3009;43.224;27.976;2022-11-20T05:01:22;100006.72;;;15.72;100.00
5966;BME280;3009;43.224;27.976;2022-11-20T05:03:51;100017.00;;;15.67;100.00
5966;BME280;3009;43.224;27.976;2022-11-20T05:06:21;100013.25;;;15.71;100.00
5966;BME280;3009;43.224;27.976;2022-11-20T05:08:50;100008.72;;;15.75;100.00
5966;BME280;3009;43.224;27.976;2022-11-20T05:11:20;100006.47;;;15.77;100.00
5966;BME280;3009;43.224;27.976;2022-11-20T05:13:49;99989.44;;;15.77;100.00
5966;BME280;3009;43.224;27.976;2022-11-20T05:16:19;99977.34;;;15.87;100.00
5966;BME280;3009;43.224;27.976;2022-11-20T05:18:48;99980.63;;;15.96;100.00
5966;BME280;3009;43.224;27.976;2022-11-20T05:21:16;99977.22;;;15.99;100.00
5966;BME280;3009;43.224;27.976;2022-11-20T05:23:45;99975.34;;;16.03;100.00
5966;BME280;3009;43.224;27.976;2022-11-20T05:26:17;99981.09;;;16.02;100.00
5966;BME280;3009;43.224;27.976;2022-11-20T05:28:45;99997.41;;;16.05;100.00
5966;BME280;3009;43.224;27.976;2022-11-20T05:31:15;99997.72;;;16.20;100.00
5966;BME280;3009;43.224;27.976;2022-11-20T05:33:52;100014.09;;;16.27;100.00
5966;BME280;3009;43.224;27.976;2022-11-20T05:36:20;100007.91;;;16.46;99.28
5966;BME280;3009;43.224;27.976;2022-11-20T05:38:48;100026.34;;;16.40;99.11
5966;BME280;3009;43.224;27.976;2022-11-20T05:41:20;100022.50;;;16.41;98.74
5966;BME280;3009;43.224;27.976;2022-11-20T05:43:49;100020.63;;;16.45;98.25
5966;BME280;3009;43.224;27.976;2022-11-20T05:46:20;100022.63;;;16.48;97.84
5966;BME280;3009;43.224;27.976;2022-11-20T05:48:55;100027.78;;;16.54;97.49
5966;BME280;3009;43.224;27.976;2022-11-20T05:51:23;100037.47;;;16.55;96.89
5966;BME280;3009;43.224;27.976;2022-11-20T05:53:52;100030.75;;;16.68;96.05
5966;BME280;3009;43.224;27.976;2022-11-20T05:56:22;100038.66;;;16.77;95.18
5966;BME280;3009;43.224;27.976;2022-11-20T05:58:50;100025.66;;;16.86;94.50
5966;BME280;3009;43.224;27.976;2022-11-20T06:01:20;100015.56;;;16.83;94.14
5966;BME280;3009;43.224;27.976;2022-11-20T06:03:49;100017.34;;;16.95;93.59
5966;BME280;3009;43.224;27.976;2022-11-20T06:06:18;100012.97;;;17.10;92.22
5966;BME280;3009;43.224;27.976;2022-11-20T06:08:47;100012.91;;;17.06;92.38
5966;BME280;3009;43.224;27.976;2022-11-20T06:11:16;100015.31;;;17.11;92.11
5966;BME280;3009;43.224;27.976;2022-11-20T06:13:46;100031.34;;;17.20;91.42
5966;BME280;3009;43.224;27.976;2022-11-20T06:16:16;100026.69;;;17.21;90.98
5966;BME280;3009;43.224;27.976;2022-11-20T06:18:45;100027.59;;;17.28;90.42
5966;BME280;3009;43.224;27.976;2022-11-20T06:21:15;100022.53;;;17.27;90.21
5966;BME280;3009;43.224;27.976;2022-11-20T06:23:44;100030.97;;;17.22;90.56
5966;BME280;3009;43.224;27.976;2022-11-20T06:26:14;100033.00;;;17.28;90.05
5966;BME280;3009;43.224;27.976;2022-11-20T06:28:42;100040.78;;;17.30;90.07
5966;BME280;3009;43.224;27.976;2022-11-20T06:31:14;100045.19;;;17.38;89.55
5966;BME280;3009;43.224;27.976;2022-11-20T06:33:43;100046.81;;;17.43;89.20
5966;BME280;3009;43.224;27.976;2022-11-20T06:36:13;100044.38;;;17.38;89.66
5966;BME280;3009;43.224;27.976;2022-11-20T06:38:42;100046.31;;;17.37;89.67
5966;BME280;3009;43.224;27.976;2022-11-20T06:41:11;100039.88;;;17.45;89.50
5966;BME280;3009;43.224;27.976;2022-11-20T06:43:40;100030.72;;;17.53;88.88
5966;BME280;3009;43.224;27.976;2022-11-20T06:46:09;100034.38;;;17.65;87.61
5966;BME280;3009;43.224;27.976;2022-11-20T06:48:40;100039.22;;;17.79;86.86
5966;BME280;3009;43.224;27.976;2022-11-20T06:51:08;100044.69;;;17.82;86.31
5966;BME280;3009;43.224;27.976;2022-11-20T06:53:37;100048.97;;;17.83;86.36
5966;BME280;3009;43.224;27.976;2022-11-20T06:56:06;100036.34;;;17.91;86.31
5966;BME280;3009;43.224;27.976;2022-11-20T06:58:35;100032.53;;;17.96;85.59
5966;BME280;3009;43.224;27.976;2022-11-20T07:01:05;100046.84;;;17.96;85.66
5966;BME280;3009;43.224;27.976;2022-11-20T07:03:34;100038.06;;;18.03;85.47
5966;BME280;3009;43.224;27.976;2022-11-20T07:06:04;100047.44;;;18.09;83.89
5966;BME280;3009;43.224;27.976;2022-11-20T07:08:33;100053.25;;;18.11;84.06
5966;BME280;3009;43.224;27.976;2022-11-20T07:11:03;100045.56;;;18.13;84.42
5966;BME280;3009;43.224;27.976;2022-11-20T07:13:32;100054.09;;;18.15;84.24
5966;BME280;3009;43.224;27.976;2022-11-20T07:16:02;100051.88;;;18.21;83.66
5966;BME280;3009;43.224;27.976;2022-11-20T07:18:30;100057.22;;;18.17;84.17
5966;BME280;3009;43.224;27.976;2022-11-20T07:21:00;100055.34;;;18.21;83.73
5966;BME280;3009;43.224;27.976;2022-11-20T07:23:30;100050.63;;;18.15;84.37
5966;BME280;3009;43.224;27.976;2022-11-20T07:26:02;100054.00;;;18.08;84.26
5966;BME280;3009;43.224;27.976;2022-11-20T07:28:31;100044.56;;;17.98;84.52
5966;BME280;3009;43.224;27.976;2022-11-20T07:30:59;100050.75;;;17.95;84.95
5966;BME280;3009;43.224;27.976;2022-11-20T07:33:27;100053.38;;;17.92;85.25
5966;BME280;3009;43.224;27.976;2022-11-20T07:35:58;100053.00;;;17.93;85.18
5966;BME280;3009;43.224;27.976;2022-11-20T07:38:26;100053.09;;;17.97;85.42
5966;BME280;3009;43.224;27.976;2022-11-20T07:40:56;100058.06;;;17.95;85.67
5966;BME280;3009;43.224;27.976;2022-11-20T07:43:28;100053.38;;;17.92;85.65
5966;BME280;3009;43.224;27.976;2022-11-20T07:45:56;100058.13;;;17.98;85.59
5966;BME280;3009;43.224;27.976;2022-11-20T07:48:25;100047.13;;;17.87;85.61
5966;BME280;3009;43.224;27.976;2022-11-20T07:50:53;100050.97;;;17.86;86.12
5966;BME280;3009;43.224;27.976;2022-11-20T07:53:22;100045.94;;;17.88;85.95
5966;BME280;3009;43.224;27.976;2022-11-20T07:55:50;100051.75;;;17.87;86.45
5966;BME280;3009;43.224;27.976;2022-11-20T07:58:21;100048.25;;;17.86;86.44
5966;BME280;3009;43.224;27.976;2022-11-20T08:00:49;100051.03;;;17.90;86.06
5966;BME280;3009;43.224;27.976;2022-11-20T08:03:18;100049.16;;;17.94;86.19
5966;BME280;3009;43.224;27.976;2022-11-20T08:05:51;100048.38;;;17.94;86.44
5966;BME280;3009;43.224;27.976;2022-11-20T08:08:20;100049.13;;;17.91;86.66
5966;BME280;3009;43.224;27.976;2022-11-20T08:10:48;100062.31;;;17.92;86.77
5966;BME280;3009;43.224;27.976;2022-11-20T08:13:16;100048.66;;;17.88;86.85
5966;BME280;3009;43.224;27.976;2022-11-20T08:16:04;100044.50;;;17.95;86.73
5966;BME280;3009;43.224;27.976;2022-11-20T08:18:32;100057.66;;;17.93;86.72
5966;BME280;3009;43.224;27.976;2022-11-20T08:21:02;100053.38;;;17.92;87.15
5966;BME280;3009;43.224;27.976;2022-11-20T08:23:31;100047.22;;;17.95;87.13
5966;BME280;3009;43.224;27.976;2022-11-20T08:25:59;100048.38;;;17.94;87.28
5966;BME280;3009;43.224;27.976;2022-11-20T08:28:27;100049.16;;;17.94;87.28
5966;BME280;3009;43.224;27.976;2022-11-20T08:30:58;100050.38;;;17.97;87.44
5966;BME280;3009;43.224;27.976;2022-11-20T08:33:27;100054.63;;;17.98;87.45
5966;BME280;3009;43.224;27.976;2022-11-20T08:35:59;100054.94;;;17.93;87.72
5966;BME280;3009;43.224;27.976;2022-11-20T08:38:27;100053.25;;;17.84;88.43
5966;BME280;3009;43.224;27.976;2022-11-20T08:40:56;100055.50;;;17.79;89.00
5966;BME280;3009;43.224;27.976;2022-11-20T08:43:42;100053.16;;;17.77;89.35
5966;BME280;3009;43.224;27.976;2022-11-20T08:46:11;100038.88;;;17.80;89.24
5966;BME280;3009;43.224;27.976;2022-11-20T08:48:40;100038.13;;;17.83;88.34
5966;BME280;3009;43.224;27.976;2022-11-20T08:51:09;100031.47;;;17.77;89.86
5966;BME280;3009;43.224;27.976;2022-11-20T08:53:38;100040.78;;;17.80;89.45
5966;BME280;3009;43.224;27.976;2022-11-20T08:56:06;100040.72;;;17.76;90.33
5966;BME280;3009;43.224;27.976;2022-11-20T08:58:36;100043.34;;;17.69;90.75
5966;BME280;3009;43.224;27.976;2022-11-20T09:01:25;100038.72;;;17.69;90.54
5966;BME280;3009;43.224;27.976;2022-11-20T09:03:56;100026.28;;;17.68;90.78
5966;BME280;3009;43.224;27.976;2022-11-20T09:06:24;100019.81;;;17.77;89.66
5966;BME280;3009;43.224;27.976;2022-11-20T09:08:53;100016.44;;;17.83;88.32
5966;BME280;3009;43.224;27.976;2022-11-20T09:11:21;100018.97;;;17.96;87.37
5966;BME280;3009;43.224;27.976;2022-11-20T09:13:51;100025.66;;;18.05;85.79
5966;BME280;3009;43.224;27.976;2022-11-20T09:16:19;100009.03;;;18.07;85.22
5966;BME280;3009;43.224;27.976;2022-11-20T09:18:50;100013.81;;;18.17;84.87
5966;BME280;3009;43.224;27.976;2022-11-20T09:21:39;100017.94;;;18.38;83.04
5966;BME280;3009;43.224;27.976;2022-11-20T09:24:08;100011.81;;;18.45;82.29
5966;BME280;3009;43.224;27.976;2022-11-20T09:26:36;100011.88;;;18.48;82.00
5966;BME280;3009;43.224;27.976;2022-11-20T09:29:04;100012.19;;;18.43;82.37
5966;BME280;3009;43.224;27.976;2022-11-20T09:31:32;100005.53;;;18.37;82.72
5966;BME280;3009;43.224;27.976;2022-11-20T09:34:00;100011.44;;;18.46;82.23
5966;BME280;3009;43.224;27.976;2022-11-20T09:36:29;100009.53;;;18.47;81.88
5966;BME280;3009;43.224;27.976;2022-11-20T09:38:58;100009.94;;;18.49;81.68
5966;BME280;3009;43.224;27.976;2022-11-20T09:41:39;100001.00;;;18.48;81.87
5966;BME280;3009;43.224;27.976;2022-11-20T09:44:24;99991.31;;;18.51;81.93
5966;BME280;3009;43.224;27.976;2022-11-20T09:46:58;99991.69;;;18.49;81.71
5966;BME280;3009;43.224;27.976;2022-11-20T09:49:36;99979.31;;;18.52;81.80
5966;BME280;3009;43.224;27.976;2022-11-20T09:52:18;99982.81;;;18.52;81.64
5966;BME280;3009;43.224;27.976;2022-11-20T09:54:52;99980.22;;;18.63;80.70
5966;BME280;3009;43.224;27.976;2022-11-20T09:57:24;99974.97;;;18.81;79.79
5966;BME280;3009;43.224;27.976;2022-11-20T09:59:55;99968.25;;;19.09;78.14
5966;BME280;3009;43.224;27.976;2022-11-20T10:02:28;99977.63;;;19.15;77.29
5966;BME280;3009;43.224;27.976;2022-11-20T10:05:04;99974.47;;;19.09;77.86
5966;BME280;3009;43.224;27.976;2022-11-20T10:07:39;99968.63;;;19.07;78.16
5966;BME280;3009;43.224;27.976;2022-11-20T10:10:15;99976.13;;;19.21;77.14
5966;BME280;3009;43.224;27.976;2022-11-20T10:12:56;99966.81;;;19.22;76.52
5966;BME280;3009;43.224;27.976;2022-11-20T10:15:36;99956.38;;;19.28;76.33
5966;BME280;3009;43.224;27.976;2022-11-20T10:18:21;99946.66;;;19.27;76.82
5966;BME280;3009;43.224;27.976;2022-11-20T10:20:58;99945.59;;;19.42;75.67
5966;BME280;3009;43.224;27.976;2022-11-20T10:23:49;99944.38;;;19.33;75.66
5966;BME280;3009;43.224;27.976;2022-11-20T10:26:29;99929.53;;;19.19;76.21
5966;BME280;3009;43.224;27.976;2022-11-20T10:29:10;99930.69;;;19.22;76.39
5966;BME280;3009;43.224;27.976;2022-11-20T10:31:41;99930.28;;;19.20;75.98
5966;BME280;3009;43.224;27.976;2022-11-20T10:34:18;99927.97;;;19.22;75.55
5966;BME280;3009;43.224;27.976;2022-11-20T10:36:54;99925.28;;;19.25;75.57
5966;BME280;3009;43.224;27.976;2022-11-20T10:39:30;99919.81;;;19.22;75.89
5966;BME280;3009;43.224;27.976;2022-11-20T10:42:01;99932.56;;;19.14;76.44
5966;BME280;3009;43.224;27.976;2022-11-20T10:44:33;99923.63;;;19.10;76.71
5966;BME280;3009;43.224;27.976;2022-11-20T10:47:22;99923.28;;;19.15;76.11
5966;BME280;3009;43.224;27.976;2022-11-20T10:49:52;99928.31;;;19.13;76.49
5966;BME280;3009;43.224;27.976;2022-11-20T10:52:28;99922.06;;;19.09;77.10
5966;BME280;3009;43.224;27.976;2022-11-20T10:55:06;99924.38;;;19.07;76.66
5966;BME280;3009;43.224;27.976;2022-11-20T10:57:50;99929.06;;;19.10;76.51
5966;BME280;3009;43.224;27.976;2022-11-20T11:00:21;99920.19;;;19.17;76.39
5966;BME280;3009;43.224;27.976;2022-11-20T11:02:50;99913.22;;;19.19;75.92
5966;BME280;3009;43.224;27.976;2022-11-20T11:05:27;99918.59;;;19.16;76.40
5966;BME280;3009;43.224;27.976;2022-11-20T11:07:59;99927.94;;;19.18;76.07
5966;BME280;3009;43.224;27.976;2022-11-20T11:10:35;99926.44;;;19.24;75.48
5966;BME280;3009;43.224;27.976;2022-11-20T11:13:06;99920.94;;;19.17;75.59
5966;BME280;3009;43.224;27.976;2022-11-20T11:15:38;99922.91;;;19.20;75.83
5966;BME280;3009;43.224;27.976;2022-11-20T11:18:08;99920.88;;;19.06;76.30
5966;BME280;3009;43.224;27.976;2022-11-20T11:20:37;99917.00;;;19.04;76.49
5966;BME280;3009;43.224;27.976;2022-11-20T11:23:26;99927.09;;;19.07;76.67
5966;BME280;3009;43.224;27.976;2022-11-20T11:25:56;99921.97;;;18.98;77.14
5966;BME280;3009;43.224;27.976;2022-11-20T11:28:27;99925.94;;;19.08;76.62
5966;BME280;3009;43.224;27.976;2022-11-20T11:30:55;99920.47;;;19.04;76.81
5966;BME280;3009;43.224;27.976;2022-11-20T11:33:25;99927.13;;;19.10;76.47
5966;BME280;3009;43.224;27.976;2022-11-20T11:35:55;99930.56;;;19.04;76.29
5966;BME280;3009;43.224;27.976;2022-11-20T11:38:29;99925.97;;;19.11;75.80
5966;BME280;3009;43.224;27.976;2022-11-20T11:40:58;99925.53;;;19.06;75.83
5966;BME280;3009;43.224;27.976;2022-11-20T11:43:30;99933.22;;;18.97;76.77
5966;BME280;3009;43.224;27.976;2022-11-20T11:46:32;99940.66;;;19.03;76.00
5966;BME280;3009;43.224;27.976;2022-11-20T11:49:09;99940.69;;;19.07;76.46
5966;BME280;3009;43.224;27.976;2022-11-20T11:52:02;99961.19;;;19.01;76.26
5966;BME280;3009;43.224;27.976;2022-11-20T11:54:38;99955.72;;;18.93;76.35
5966;BME280;3009;43.224;27.976;2022-11-20T11:57:17;99954.78;;;18.82;76.27
5966;BME280;3009;43.224;27.976;2022-11-20T11:59:59;99953.97;;;18.78;77.06
5966;BME280;3009;43.224;27.976;2022-11-20T12:02:36;99957.88;;;18.81;76.51
5966;BME280;3009;43.224;27.976;2022-11-20T12:05:17;99967.88;;;18.69;77.23
5966;BME280;3009;43.224;27.976;2022-11-20T12:07:48;99969.00;;;18.65;77.56
5966;BME280;3009;43.224;27.976;2022-11-20T12:10:23;99971.72;;;18.65;77.74
5966;BME280;3009;43.224;27.976;2022-11-20T12:13:01;99966.38;;;18.75;77.16
5966;BME280;3009;43.224;27.976;2022-11-20T12:15:34;99971.81;;;18.75;77.27
5966;BME280;3009;43.224;27.976;2022-11-20T12:18:08;99958.91;;;18.65;77.33
5966;BME280;3009;43.224;27.976;2022-11-20T12:20:48;99953.47;;;18.65;77.44
5966;BME280;3009;43.224;27.976;2022-11-20T12:23:24;99956.16;;;18.62;77.55
5966;BME280;3009;43.224;27.976;2022-11-20T12:25:58;99957.38;;;18.68;76.99
5966;BME280;3009;43.224;27.976;2022-11-20T12:28:44;99955.09;;;18.73;76.46
5966;BME280;3009;43.224;27.976;2022-11-20T12:31:43;99954.63;;;18.64;76.41
5966;BME280;3009;43.224;27.976;2022-11-20T12:34:23;99943.72;;;18.60;77.40
5966;BME280;3009;43.224;27.976;2022-11-20T12:37:00;99944.94;;;18.63;77.25
5966;BME280;3009;43.224;27.976;2022-11-20T12:39:34;99942.97;;;18.60;77.43
5966;BME280;3009;43.224;27.976;2022-11-20T12:42:25;99937.94;;;18.62;77.36
5966;BME280;3009;43.224;27.976;2022-11-20T12:48:19;99937.63;;;18.71;76.70
5966;BME280;3009;43.224;27.976;2022-11-20T12:51:09;99937.16;;;18.62;77.18
5966;BME280;3009;43.224;27.976;2022-11-20T12:53:48;99940.13;;;18.49;77.72
5966;BME280;3009;43.224;27.976;2022-11-20T12:56:28;99950.66;;;18.54;77.62
5966;BME280;3009;43.224;27.976;2022-11-20T12:59:07;99950.22;;;18.52;77.38
5966;BME280;3009;43.224;27.976;2022-11-20T13:01:42;99953.38;;;18.54;77.75
5966;BME280;3009;43.224;27.976;2022-11-20T13:07:07;99952.56;;;18.54;77.76
5966;BME280;3009;43.224;27.976;2022-11-20T13:09:42;99957.94;;;18.47;78.17
5966;BME280;3009;43.224;27.976;2022-11-20T13:12:16;99944.78;;;18.49;78.26
5966;BME280;3009;43.224;27.976;2022-11-20T13:14:53;99936.53;;;18.38;78.61
5966;BME280;3009;43.224;27.976;2022-11-20T13:17:32;99944.28;;;18.39;78.54
5966;BME280;3009;43.224;27.976;2022-11-20T13:20:05;99937.28;;;18.38;78.55
5966;BME280;3009;43.224;27.976;2022-11-20T13:22:43;99932.22;;;18.33;78.91
5966;BME280;3009;43.224;27.976;2022-11-20T13:25:22;99942.53;;;18.20;79.36
5966;BME280;3009;43.224;27.976;2022-11-20T13:27:51;99939.41;;;18.18;80.10
5966;BME280;3009;43.224;27.976;2022-11-20T13:30:21;99929.63;;;18.10;80.52